sensor_id;sensor_type;location;lat;lon;timestamp;P1;durP1;ratioP1;P2;durP2;ratioP2
55692;SDS011;41590;53.366;5.212;2022-07-06T00:04:04;5.03;;;1.10;;
55692;SDS011;41590;53.366;5.212;2022-07-06T00:06:32;3.97;;;0.60;;
55692;SDS011;41590;53.366;5.212;2022-07-06T00:09:02;7.38;;;0.93;;
55692;SDS011;41590;53.366;5.212;2022-07-06T00:22:14;4.70;;;0.80;;
55692;SDS011;41590;53.366;5.212;2022-07-06T00:24:55;7.50;;;0.90;;
55692;SDS011;41590;53.366;5.212;2022-07-06T00:30:02;4.50;;;0.60;;
55692;SDS011;41590;53.366;5.212;2022-07-06T00:32:28;8.38;;;0.60;;
55692;SDS011;41590;53.366;5.212;2022-07-06T00:44:11;8.13;;;0.90;;
55692;SDS011;41590;53.366;5.212;2022-07-06T00:46:42;8.70;;;1.02;;
55692;SDS011;41590;53.366;5.212;2022-07-06T00:49:09;6.45;;;0.63;;
55692;SDS011;41590;53.366;5.212;2022-07-06T00:51:55;5.75;;;0.60;;
55692;SDS011;41590;53.366;5.212;2022-07-06T00:54:23;7.28;;;0.77;;
55692;SDS011;41590;53.366;5.212;2022-07-06T00:56:54;3.80;;;0.60;;
55692;SDS011;41590;53.366;5.212;2022-07-06T00:59:38;6.32;;;1.02;;
55692;SDS011;41590;53.366;5.212;2022-07-06T01:02:09;5.13;;;1.10;;
55692;SDS011;41590;53.366;5.212;2022-07-06T01:07:06;5.35;;;0.77;;
55692;SDS011;41590;53.366;5.212;2022-07-06T01:09:39;6.15;;;0.75;;
55692;SDS011;41590;53.366;5.212;2022-07-06T01:12:06;2.85;;;0.45;;
55692;SDS011;41590;53.366;5.212;2022-07-06T01:14:35;3.47;;;0.80;;
55692;SDS011;41590;53.366;5.212;2022-07-06T01:17:04;7.75;;;0.70;;
55692;SDS011;41590;53.366;5.212;2022-07-06T01:19:32;6.72;;;0.70;;
55692;SDS011;41590;53.366;5.212;2022-07-06T01:22:00;6.53;;;0.88;;
55692;SDS011;41590;53.366;5.212;2022-07-06T01:24:26;5.82;;;1.00;;
55692;SDS011;41590;53.366;5.212;2022-07-06T01:30:11;4.55;;;0.52;;
55692;SDS011;41590;53.366;5.212;2022-07-06T01:32:38;7.10;;;0.80;;
55692;SDS011;41590;53.366;5.212;2022-07-06T01:35:08;5.40;;;0.73;;
55692;SDS011;41590;53.366;5.212;2022-07-06T01:37:44;8.23;;;0.90;;
55692;SDS011;41590;53.366;5.212;2022-07-06T01:42:47;7.78;;;0.93;;
55692;SDS011;41590;53.366;5.212;2022-07-06T01:45:14;4.80;;;1.48;;
55692;SDS011;41590;53.366;5.212;2022-07-06T01:47:42;4.47;;;1.05;;
55692;SDS011;41590;53.366;5.212;2022-07-06T01:50:08;7.07;;;0.85;;
55692;SDS011;41590;53.366;5.212;2022-07-06T01:52:35;10.13;;;0.73;;
55692;SDS011;41590;53.366;5.212;2022-07-06T01:55:02;4.70;;;0.68;;
55692;SDS011;41590;53.366;5.212;2022-07-06T01:57:29;3.90;;;0.70;;
55692;SDS011;41590;53.366;5.212;2022-07-06T01:59:55;5.70;;;0.98;;
55692;SDS011;41590;53.366;5.212;2022-07-06T02:02:30;3.47;;;0.70;;
55692;SDS011;41590;53.366;5.212;2022-07-06T02:04:55;6.68;;;0.95;;
55692;SDS011;41590;53.366;5.212;2022-07-06T02:07:24;5.47;;;0.90;;
55692;SDS011;41590;53.366;5.212;2022-07-06T02:12:24;7.75;;;0.70;;
55692;SDS011;41590;53.366;5.212;2022-07-06T02:14:49;5.30;;;0.90;;
55692;SDS011;41590;53.366;5.212;2022-07-06T02:17:18;5.65;;;0.55;;
55692;SDS011;41590;53.366;5.212;2022-07-06T02:22:39;5.55;;;0.90;;
55692;SDS011;41590;53.366;5.212;2022-07-06T02:25:12;7.10;;;0.80;;
55692;SDS011;41590;53.366;5.212;2022-07-06T02:27:44;4.13;;;0.63;;
55692;SDS011;41590;53.366;5.212;2022-07-06T02:30:10;5.95;;;0.93;;
55692;SDS011;41590;53.366;5.212;2022-07-06T02:32:36;4.18;;;0.82;;
55692;SDS011;41590;53.366;5.212;2022-07-06T02:35:10;7.50;;;0.55;;
55692;SDS011;41590;53.366;5.212;2022-07-06T02:37:39;4.13;;;0.45;;
55692;SDS011;41590;53.366;5.212;2022-07-06T02:40:20;6.10;;;0.75;;
55692;SDS011;41590;53.366;5.212;2022-07-06T02:42:49;4.22;;;1.00;;
55692;SDS011;41590;53.366;5.212;2022-07-06T02:45:14;4.30;;;0.55;;
55692;SDS011;41590;53.366;5.212;2022-07-06T02:47:42;9.32;;;0.85;;
55692;SDS011;41590;53.366;5.212;2022-07-06T02:50:12;4.05;;;0.50;;
55692;SDS011;41590;53.366;5.212;2022-07-06T02:56:19;3.90;;;0.60;;
55692;SDS011;41590;53.366;5.212;2022-07-06T03:01:51;5.72;;;1.10;;
55692;SDS011;41590;53.366;5.212;2022-07-06T03:04:18;4.95;;;0.82;;
55692;SDS011;41590;53.366;5.212;2022-07-06T03:06:46;6.90;;;0.50;;
55692;SDS011;41590;53.366;5.212;2022-07-06T03:09:24;4.63;;;0.98;;
55692;SDS011;41590;53.366;5.212;2022-07-06T03:14:20;5.55;;;0.63;;
55692;SDS011;41590;53.366;5.212;2022-07-06T03:16:57;4.47;;;0.70;;
55692;SDS011;41590;53.366;5.212;2022-07-06T03:22:12;3.97;;;0.60;;
55692;SDS011;41590;53.366;5.212;2022-07-06T03:24:38;4.45;;;0.40;;
55692;SDS011;41590;53.366;5.212;2022-07-06T03:27:07;2.28;;;0.68;;
55692;SDS011;41590;53.366;5.212;2022-07-06T03:29:35;6.70;;;1.42;;
55692;SDS011;41590;53.366;5.212;2022-07-06T03:34:45;3.40;;;0.50;;
55692;SDS011;41590;53.366;5.212;2022-07-06T03:39:41;2.80;;;0.50;;
55692;SDS011;41590;53.366;5.212;2022-07-06T03:47:38;3.35;;;0.40;;
55692;SDS011;41590;53.366;5.212;2022-07-06T03:50:08;2.80;;;0.45;;
55692;SDS011;41590;53.366;5.212;2022-07-06T03:52:34;2.75;;;0.50;;
55692;SDS011;41590;53.366;5.212;2022-07-06T03:55:17;6.93;;;0.63;;
55692;SDS011;41590;53.366;5.212;2022-07-06T03:57:43;5.78;;;0.70;;
55692;SDS011;41590;53.366;5.212;2022-07-06T04:00:13;1.98;;;0.45;;
55692;SDS011;41590;53.366;5.212;2022-07-06T04:06:20;8.80;;;0.70;;
55692;SDS011;41590;53.366;5.212;2022-07-06T04:08:46;6.47;;;0.60;;
55692;SDS011;41590;53.366;5.212;2022-07-06T04:11:12;5.43;;;0.88;;
55692;SDS011;41590;53.366;5.212;2022-07-06T04:22:27;5.35;;;0.50;;
55692;SDS011;41590;53.366;5.212;2022-07-06T04:25:00;4.78;;;0.75;;
55692;SDS011;41590;53.366;5.212;2022-07-06T04:27:32;4.57;;;0.60;;
55692;SDS011;41590;53.366;5.212;2022-07-06T04:29:58;3.33;;;0.40;;
55692;SDS011;41590;53.366;5.212;2022-07-06T04:32:26;3.65;;;0.50;;
55692;SDS011;41590;53.366;5.212;2022-07-06T04:34:57;5.18;;;0.80;;
55692;SDS011;41590;53.366;5.212;2022-07-06T04:37:23;3.70;;;0.57;;
55692;SDS011;41590;53.366;5.212;2022-07-06T04:39:49;3.63;;;0.55;;
55692;SDS011;41590;53.366;5.212;2022-07-06T04:42:24;3.95;;;0.68;;
55692;SDS011;41590;53.366;5.212;2022-07-06T04:45:03;4.05;;;0.50;;
55692;SDS011;41590;53.366;5.212;2022-07-06T04:47:36;3.40;;;0.40;;
55692;SDS011;41590;53.366;5.212;2022-07-06T04:52:32;4.60;;;0.90;;
55692;SDS011;41590;53.366;5.212;2022-07-06T04:55:07;4.68;;;0.70;;
55692;SDS011;41590;53.366;5.212;2022-07-06T05:00:25;5.75;;;0.70;;
55692;SDS011;41590;53.366;5.212;2022-07-06T05:02:56;6.53;;;0.85;;
55692;SDS011;41590;53.366;5.212;2022-07-06T05:08:20;6.68;;;0.70;;
55692;SDS011;41590;53.366;5.212;2022-07-06T05:10:47;3.60;;;0.55;;
55692;SDS011;41590;53.366;5.212;2022-07-06T05:13:14;5.38;;;0.60;;
55692;SDS011;41590;53.366;5.212;2022-07-06T05:15:39;4.55;;;0.70;;
55692;SDS011;41590;53.366;5.212;2022-07-06T05:18:05;5.32;;;0.60;;
55692;SDS011;41590;53.366;5.212;2022-07-06T05:20:31;2.58;;;0.50;;
55692;SDS011;41590;53.366;5.212;2022-07-06T05:23:03;5.07;;;0.45;;
55692;SDS011;41590;53.366;5.212;2022-07-06T05:25:30;4.00;;;0.68;;
55692;SDS011;41590;53.366;5.212;2022-07-06T05:27:59;6.30;;;1.00;;
55692;SDS011;41590;53.366;5.212;2022-07-06T05:33:09;5.13;;;0.70;;
55692;SDS011;41590;53.366;5.212;2022-07-06T05:35:35;6.45;;;0.60;;
55692;SDS011;41590;53.366;5.212;2022-07-06T05:38:02;4.32;;;0.88;;
55692;SDS011;41590;53.366;5.212;2022-07-06T05:40:27;4.88;;;0.55;;
55692;SDS011;41590;53.366;5.212;2022-07-06T05:42:57;3.83;;;0.45;;
55692;SDS011;41590;53.366;5.212;2022-07-06T05:48:23;4.18;;;0.63;;
55692;SDS011;41590;53.366;5.212;2022-07-06T05:51:08;3.45;;;0.68;;
55692;SDS011;41590;53.366;5.212;2022-07-06T06:04:08;4.90;;;1.23;;
55692;SDS011;41590;53.366;5.212;2022-07-06T06:06:45;4.90;;;0.70;;
55692;SDS011;41590;53.366;5.212;2022-07-06T06:09:12;6.20;;;0.90;;
55692;SDS011;41590;53.366;5.212;2022-07-06T06:11:40;6.93;;;0.60;;
55692;SDS011;41590;53.366;5.212;2022-07-06T06:14:10;2.38;;;0.43;;
55692;SDS011;41590;53.366;5.212;2022-07-06T06:16:51;3.22;;;0.43;;
55692;SDS011;41590;53.366;5.212;2022-07-06T06:22:11;3.17;;;0.40;;
55692;SDS011;41590;53.366;5.212;2022-07-06T06:24:44;3.67;;;0.75;;
55692;SDS011;41590;53.366;5.212;2022-07-06T06:40:55;4.85;;;0.50;;
55692;SDS011;41590;53.366;5.212;2022-07-06T06:43:24;3.78;;;0.70;;
55692;SDS011;41590;53.366;5.212;2022-07-06T06:45:54;4.55;;;0.80;;
55692;SDS011;41590;53.366;5.212;2022-07-06T06:48:20;5.30;;;0.60;;
55692;SDS011;41590;53.366;5.212;2022-07-06T06:50:46;4.38;;;0.65;;
55692;SDS011;41590;53.366;5.212;2022-07-06T06:56:04;5.30;;;0.70;;
55692;SDS011;41590;53.366;5.212;2022-07-06T06:58:31;5.10;;;0.52;;
55692;SDS011;41590;53.366;5.212;2022-07-06T07:00:59;2.45;;;0.50;;
55692;SDS011;41590;53.366;5.212;2022-07-06T07:03:24;5.85;;;0.57;;
55692;SDS011;41590;53.366;5.212;2022-07-06T07:05:52;3.78;;;0.80;;
55692;SDS011;41590;53.366;5.212;2022-07-06T07:08:27;5.53;;;0.70;;
55692;SDS011;41590;53.366;5.212;2022-07-06T07:10:53;7.07;;;1.00;;
55692;SDS011;41590;53.366;5.212;2022-07-06T07:13:20;3.10;;;0.60;;
55692;SDS011;41590;53.366;5.212;2022-07-06T07:15:47;7.07;;;0.50;;
55692;SDS011;41590;53.366;5.212;2022-07-06T07:18:23;4.18;;;0.77;;
55692;SDS011;41590;53.366;5.212;2022-07-06T07:20:52;3.95;;;0.65;;
55692;SDS011;41590;53.366;5.212;2022-07-06T07:25:52;6.75;;;1.75;;
55692;SDS011;41590;53.366;5.212;2022-07-06T07:28:18;3.72;;;0.60;;
55692;SDS011;41590;53.366;5.212;2022-07-06T07:30:50;5.00;;;0.77;;
55692;SDS011;41590;53.366;5.212;2022-07-06T07:33:27;6.43;;;0.77;;
55692;SDS011;41590;53.366;5.212;2022-07-06T07:38:23;3.33;;;0.57;;
55692;SDS011;41590;53.366;5.212;2022-07-06T07:40:49;4.95;;;0.52;;
55692;SDS011;41590;53.366;5.212;2022-07-06T07:43:22;3.05;;;0.50;;
55692;SDS011;41590;53.366;5.212;2022-07-06T07:45:49;3.58;;;0.50;;
55692;SDS011;41590;53.366;5.212;2022-07-06T07:48:18;3.40;;;0.40;;
55692;SDS011;41590;53.366;5.212;2022-07-06T07:50:45;2.30;;;0.50;;
55692;SDS011;41590;53.366;5.212;2022-07-06T07:53:11;6.20;;;0.60;;
55692;SDS011;41590;53.366;5.212;2022-07-06T07:55:43;5.30;;;0.60;;
55692;SDS011;41590;53.366;5.212;2022-07-06T07:58:12;5.65;;;0.90;;
55692;SDS011;41590;53.366;5.212;2022-07-06T08:00:39;4.68;;;0.60;;
55692;SDS011;41590;53.366;5.212;2022-07-06T08:03:05;1.73;;;0.40;;
55692;SDS011;41590;53.366;5.212;2022-07-06T08:05:39;5.28;;;0.70;;
55692;SDS011;41590;53.366;5.212;2022-07-06T08:10:40;5.03;;;1.10;;
55692;SDS011;41590;53.366;5.212;2022-07-06T08:13:07;2.78;;;0.52;;
55692;SDS011;41590;53.366;5.212;2022-07-06T08:15:34;2.17;;;0.40;;
55692;SDS011;41590;53.366;5.212;2022-07-06T08:18:02;5.78;;;0.60;;
55692;SDS011;41590;53.366;5.212;2022-07-06T08:20:31;3.10;;;0.88;;
55692;SDS011;41590;53.366;5.212;2022-07-06T08:28:28;5.40;;;0.30;;
55692;SDS011;41590;53.366;5.212;2022-07-06T08:30:56;4.37;;;0.67;;
55692;SDS011;41590;53.366;5.212;2022-07-06T08:36:21;5.70;;;0.52;;
55692;SDS011;41590;53.366;5.212;2022-07-06T08:38:51;4.40;;;0.40;;
55692;SDS011;41590;53.366;5.212;2022-07-06T08:41:17;4.22;;;0.40;;
55692;SDS011;41590;53.366;5.212;2022-07-06T08:43:48;3.50;;;0.43;;
55692;SDS011;41590;53.366;5.212;2022-07-06T08:46:15;3.95;;;0.50;;
55692;SDS011;41590;53.366;5.212;2022-07-06T08:48:41;9.60;;;1.20;;
55692;SDS011;41590;53.366;5.212;2022-07-06T08:51:08;6.43;;;0.60;;
55692;SDS011;41590;53.366;5.212;2022-07-06T08:53:39;20.92;;;1.15;;
55692;SDS011;41590;53.366;5.212;2022-07-06T08:56:07;1.98;;;0.30;;
55692;SDS011;41590;53.366;5.212;2022-07-06T08:58:33;3.95;;;1.23;;
55692;SDS011;41590;53.366;5.212;2022-07-06T09:01:00;1.58;;;0.35;;
55692;SDS011;41590;53.366;5.212;2022-07-06T09:03:28;2.95;;;0.40;;
55692;SDS011;41590;53.366;5.212;2022-07-06T09:05:56;1.92;;;0.43;;
55692;SDS011;41590;53.366;5.212;2022-07-06T09:08:26;2.60;;;0.50;;
55692;SDS011;41590;53.366;5.212;2022-07-06T09:10:53;1.10;;;0.20;;
55692;SDS011;41590;53.366;5.212;2022-07-06T09:13:20;5.03;;;0.45;;
55692;SDS011;41590;53.366;5.212;2022-07-06T09:15:47;2.22;;;0.47;;
55692;SDS011;41590;53.366;5.212;2022-07-06T09:18:13;3.08;;;0.50;;
55692;SDS011;41590;53.366;5.212;2022-07-06T09:23:31;1.90;;;0.40;;
55692;SDS011;41590;53.366;5.212;2022-07-06T09:25:57;1.65;;;0.20;;
55692;SDS011;41590;53.366;5.212;2022-07-06T09:28:23;1.50;;;0.43;;
55692;SDS011;41590;53.366;5.212;2022-07-06T09:31:10;2.30;;;0.30;;
55692;SDS011;41590;53.366;5.212;2022-07-06T09:33:36;3.60;;;0.30;;
55692;SDS011;41590;53.366;5.212;2022-07-06T09:36:04;2.25;;;0.30;;
55692;SDS011;41590;53.366;5.212;2022-07-06T09:38:33;5.78;;;1.30;;
55692;SDS011;41590;53.366;5.212;2022-07-06T09:41:13;3.97;;;0.50;;
55692;SDS011;41590;53.366;5.212;2022-07-06T09:49:06;2.70;;;0.43;;
55692;SDS011;41590;53.366;5.212;2022-07-06T09:51:35;3.45;;;0.40;;
55692;SDS011;41590;53.366;5.212;2022-07-06T09:54:12;3.42;;;0.60;;
55692;SDS011;41590;53.366;5.212;2022-07-06T09:56:38;2.97;;;0.40;;
55692;SDS011;41590;53.366;5.212;2022-07-06T10:02:20;3.03;;;0.52;;
55692;SDS011;41590;53.366;5.212;2022-07-06T10:04:49;2.25;;;0.70;;
55692;SDS011;41590;53.366;5.212;2022-07-06T10:07:17;3.65;;;0.82;;
55692;SDS011;41590;53.366;5.212;2022-07-06T10:09:43;3.83;;;0.60;;
55692;SDS011;41590;53.366;5.212;2022-07-06T10:15:13;3.15;;;0.60;;
55692;SDS011;41590;53.366;5.212;2022-07-06T10:17:43;4.68;;;0.63;;
55692;SDS011;41590;53.366;5.212;2022-07-06T10:20:15;2.87;;;0.50;;
55692;SDS011;41590;53.366;5.212;2022-07-06T10:22:42;4.32;;;0.50;;
55692;SDS011;41590;53.366;5.212;2022-07-06T10:25:09;3.00;;;0.85;;
55692;SDS011;41590;53.366;5.212;2022-07-06T10:27:36;3.13;;;0.32;;
55692;SDS011;41590;53.366;5.212;2022-07-06T10:32:36;7.30;;;0.40;;
55692;SDS011;41590;53.366;5.212;2022-07-06T10:37:33;2.13;;;0.55;;
55692;SDS011;41590;53.366;5.212;2022-07-06T10:40:14;2.72;;;0.50;;
55692;SDS011;41590;53.366;5.212;2022-07-06T10:43:03;4.03;;;0.52;;
55692;SDS011;41590;53.366;5.212;2022-07-06T10:54:00;3.75;;;0.40;;
55692;SDS011;41590;53.366;5.212;2022-07-06T10:56:36;3.08;;;0.65;;
55692;SDS011;41590;53.366;5.212;2022-07-06T10:59:29;2.30;;;0.45;;
55692;SDS011;41590;53.366;5.212;2022-07-06T11:05:01;2.33;;;0.50;;
55692;SDS011;41590;53.366;5.212;2022-07-06T11:13:28;4.22;;;0.60;;
55692;SDS011;41590;53.366;5.212;2022-07-06T11:16:01;3.05;;;0.70;;
55692;SDS011;41590;53.366;5.212;2022-07-06T11:18:46;4.78;;;0.90;;
55692;SDS011;41590;53.366;5.212;2022-07-06T11:25:22;4.00;;;0.82;;
55692;SDS011;41590;53.366;5.212;2022-07-06T11:27:55;4.97;;;0.73;;
55692;SDS011;41590;53.366;5.212;2022-07-06T11:30:26;5.28;;;1.38;;
55692;SDS011;41590;53.366;5.212;2022-07-06T11:33:05;2.97;;;1.10;;
55692;SDS011;41590;53.366;5.212;2022-07-06T11:38:30;2.45;;;0.80;;
55692;SDS011;41590;53.366;5.212;2022-07-06T11:41:08;5.97;;;0.90;;
55692;SDS011;41590;53.366;5.212;2022-07-06T11:43:35;3.00;;;0.80;;
55692;SDS011;41590;53.366;5.212;2022-07-06T11:46:02;5.32;;;0.95;;
55692;SDS011;41590;53.366;5.212;2022-07-06T11:48:28;8.38;;;1.45;;
55692;SDS011;41590;53.366;5.212;2022-07-06T11:50:59;4.82;;;0.90;;
55692;SDS011;41590;53.366;5.212;2022-07-06T11:56:02;4.07;;;1.17;;
55692;SDS011;41590;53.366;5.212;2022-07-06T11:58:30;6.05;;;0.90;;
55692;SDS011;41590;53.366;5.212;2022-07-06T12:01:12;4.80;;;1.20;;
55692;SDS011;41590;53.366;5.212;2022-07-06T12:03:40;4.57;;;1.10;;
55692;SDS011;41590;53.366;5.212;2022-07-06T12:06:12;4.82;;;0.80;;
55692;SDS011;41590;53.366;5.212;2022-07-06T12:11:39;7.05;;;1.20;;
55692;SDS011;41590;53.366;5.212;2022-07-06T12:14:41;6.22;;;1.42;;
55692;SDS011;41590;53.366;5.212;2022-07-06T12:17:22;7.43;;;0.93;;
55692;SDS011;41590;53.366;5.212;2022-07-06T12:26:28;4.18;;;1.10;;
55692;SDS011;41590;53.366;5.212;2022-07-06T12:38:25;5.95;;;1.10;;
55692;SDS011;41590;53.366;5.212;2022-07-06T12:41:00;7.82;;;1.15;;
55692;SDS011;41590;53.366;5.212;2022-07-06T12:49:46;6.47;;;1.63;;
55692;SDS011;41590;53.366;5.212;2022-07-06T12:56:09;6.97;;;1.13;;
55692;SDS011;41590;53.366;5.212;2022-07-06T13:02:26;5.75;;;1.67;;
55692;SDS011;41590;53.366;5.212;2022-07-06T13:11:34;13.38;;;2.15;;
55692;SDS011;41590;53.366;5.212;2022-07-06T13:19:44;7.53;;;1.65;;
55692;SDS011;41590;53.366;5.212;2022-07-06T13:22:29;7.00;;;1.42;;
55692;SDS011;41590;53.366;5.212;2022-07-06T13:25:12;6.55;;;1.42;;
55692;SDS011;41590;53.366;5.212;2022-07-06T13:35:46;5.05;;;1.30;;
55692;SDS011;41590;53.366;5.212;2022-07-06T13:47:39;10.45;;;2.08;;
55692;SDS011;41590;53.366;5.212;2022-07-06T13:50:22;8.05;;;2.15;;
55692;SDS011;41590;53.366;5.212;2022-07-06T13:53:10;11.80;;;1.83;;
55692;SDS011;41590;53.366;5.212;2022-07-06T13:55:56;8.63;;;1.92;;
55692;SDS011;41590;53.366;5.212;2022-07-06T14:01:32;7.40;;;2.08;;
55692;SDS011;41590;53.366;5.212;2022-07-06T14:17:17;9.70;;;1.88;;
55692;SDS011;41590;53.366;5.212;2022-07-06T14:23:04;8.30;;;2.30;;
55692;SDS011;41590;53.366;5.212;2022-07-06T14:28:04;8.02;;;2.40;;
55692;SDS011;41590;53.366;5.212;2022-07-06T14:30:44;9.85;;;2.83;;
55692;SDS011;41590;53.366;5.212;2022-07-06T14:33:11;8.75;;;3.28;;
55692;SDS011;41590;53.366;5.212;2022-07-06T14:39:10;15.45;;;4.85;;
55692;SDS011;41590;53.366;5.212;2022-07-06T14:41:50;15.15;;;4.07;;
55692;SDS011;41590;53.366;5.212;2022-07-06T14:44:17;13.50;;;4.60;;
55692;SDS011;41590;53.366;5.212;2022-07-06T14:46:46;14.82;;;4.38;;
55692;SDS011;41590;53.366;5.212;2022-07-06T14:49:28;11.48;;;4.30;;
55692;SDS011;41590;53.366;5.212;2022-07-06T15:06:47;11.90;;;3.72;;
55692;SDS011;41590;53.366;5.212;2022-07-06T15:09:31;14.27;;;4.20;;
55692;SDS011;41590;53.366;5.212;2022-07-06T15:12:04;15.45;;;4.43;;
55692;SDS011;41590;53.366;5.212;2022-07-06T15:14:40;19.35;;;4.20;;
55692;SDS011;41590;53.366;5.212;2022-07-06T15:17:27;11.68;;;4.20;;
55692;SDS011;41590;53.366;5.212;2022-07-06T15:37:51;13.10;;;3.40;;
55692;SDS011;41590;53.366;5.212;2022-07-06T15:46:40;6.37;;;3.87;;
55692;SDS011;41590;53.366;5.212;2022-07-06T15:55:45;8.27;;;2.95;;
55692;SDS011;41590;53.366;5.212;2022-07-06T15:58:40;4.05;;;2.25;;
55692;SDS011;41590;53.366;5.212;2022-07-06T16:08:02;9.07;;;2.13;;
55692;SDS011;41590;53.366;5.212;2022-07-06T16:17:28;12.13;;;2.53;;
55692;SDS011;41590;53.366;5.212;2022-07-06T16:46:30;10.05;;;2.75;;
55692;SDS011;41590;53.366;5.212;2022-07-06T16:48:57;7.55;;;2.50;;
55692;SDS011;41590;53.366;5.212;2022-07-06T16:51:26;9.80;;;3.03;;
55692;SDS011;41590;53.366;5.212;2022-07-06T16:56:29;11.90;;;3.30;;
55692;SDS011;41590;53.366;5.212;2022-07-06T16:58:55;11.73;;;3.85;;
55692;SDS011;41590;53.366;5.212;2022-07-06T17:01:29;10.55;;;3.25;;
55692;SDS011;41590;53.366;5.212;2022-07-06T17:04:02;12.10;;;3.83;;
55692;SDS011;41590;53.366;5.212;2022-07-06T17:06:28;11.98;;;3.80;;
55692;SDS011;41590;53.366;5.212;2022-07-06T17:08:57;9.73;;;4.40;;
55692;SDS011;41590;53.366;5.212;2022-07-06T17:11:26;13.45;;;4.68;;
55692;SDS011;41590;53.366;5.212;2022-07-06T17:13:52;16.75;;;5.00;;
55692;SDS011;41590;53.366;5.212;2022-07-06T17:16:26;13.27;;;4.43;;
55692;SDS011;41590;53.366;5.212;2022-07-06T17:18:56;8.88;;;4.03;;
55692;SDS011;41590;53.366;5.212;2022-07-06T17:21:22;10.25;;;4.40;;
55692;SDS011;41590;53.366;5.212;2022-07-06T17:23:52;11.90;;;3.97;;
55692;SDS011;41590;53.366;5.212;2022-07-06T17:26:28;11.65;;;4.53;;
55692;SDS011;41590;53.366;5.212;2022-07-06T17:28:55;10.85;;;4.57;;
55692;SDS011;41590;53.366;5.212;2022-07-06T17:31:22;15.10;;;5.15;;
55692;SDS011;41590;53.366;5.212;2022-07-06T17:33:49;11.95;;;4.60;;
55692;SDS011;41590;53.366;5.212;2022-07-06T17:36:17;12.20;;;5.25;;
55692;SDS011;41590;53.366;5.212;2022-07-06T17:38:59;17.67;;;5.07;;
55692;SDS011;41590;53.366;5.212;2022-07-06T17:41:27;14.77;;;4.93;;
55692;SDS011;41590;53.366;5.212;2022-07-06T17:46:31;16.73;;;5.13;;
55692;SDS011;41590;53.366;5.212;2022-07-06T17:49:11;17.30;;;5.45;;
55692;SDS011;41590;53.366;5.212;2022-07-06T17:51:40;12.27;;;5.47;;
55692;SDS011;41590;53.366;5.212;2022-07-06T17:54:19;13.30;;;4.55;;
55692;SDS011;41590;53.366;5.212;2022-07-06T17:56:45;14.07;;;4.53;;
55692;SDS011;41590;53.366;5.212;2022-07-06T17:59:15;11.63;;;5.32;;
55692;SDS011;41590;53.366;5.212;2022-07-06T18:01:57;13.48;;;5.28;;
55692;SDS011;41590;53.366;5.212;2022-07-06T18:04:24;10.43;;;4.38;;
55692;SDS011;41590;53.366;5.212;2022-07-06T18:06:50;13.23;;;4.78;;
55692;SDS011;41590;53.366;5.212;2022-07-06T18:09:18;19.92;;;5.57;;
55692;SDS011;41590;53.366;5.212;2022-07-06T18:11:58;15.63;;;4.85;;
55692;SDS011;41590;53.366;5.212;2022-07-06T18:14:37;11.88;;;4.60;;
55692;SDS011;41590;53.366;5.212;2022-07-06T18:17:15;17.75;;;4.82;;
55692;SDS011;41590;53.366;5.212;2022-07-06T18:19:43;14.02;;;5.13;;
55692;SDS011;41590;53.366;5.212;2022-07-06T18:22:09;15.82;;;5.05;;
55692;SDS011;41590;53.366;5.212;2022-07-06T18:24:35;12.25;;;4.45;;
55692;SDS011;41590;53.366;5.212;2022-07-06T18:27:05;18.17;;;5.47;;
55692;SDS011;41590;53.366;5.212;2022-07-06T18:29:31;13.82;;;5.18;;
55692;SDS011;41590;53.366;5.212;2022-07-06T18:32:00;13.93;;;4.53;;
55692;SDS011;41590;53.366;5.212;2022-07-06T18:34:28;11.20;;;5.20;;
55692;SDS011;41590;53.366;5.212;2022-07-06T18:37:01;17.13;;;5.20;;
55692;SDS011;41590;53.366;5.212;2022-07-06T18:39:29;18.23;;;4.43;;
55692;SDS011;41590;53.366;5.212;2022-07-06T18:41:56;14.82;;;3.75;;
55692;SDS011;41590;53.366;5.212;2022-07-06T18:44:44;13.82;;;4.40;;
55692;SDS011;41590;53.366;5.212;2022-07-06T18:47:11;15.43;;;4.90;;
55692;SDS011;41590;53.366;5.212;2022-07-06T18:49:37;15.05;;;4.93;;
55692;SDS011;41590;53.366;5.212;2022-07-06T18:52:08;12.75;;;5.13;;
55692;SDS011;41590;53.366;5.212;2022-07-06T18:54:34;11.80;;;4.40;;
55692;SDS011;41590;53.366;5.212;2022-07-06T18:56:59;13.63;;;5.03;;
55692;SDS011;41590;53.366;5.212;2022-07-06T19:05:11;12.70;;;4.25;;
55692;SDS011;41590;53.366;5.212;2022-07-06T19:13:29;9.30;;;3.65;;
55692;SDS011;41590;53.366;5.212;2022-07-06T19:19:00;17.25;;;4.72;;
55692;SDS011;41590;53.366;5.212;2022-07-06T19:24:19;13.40;;;4.32;;
55692;SDS011;41590;53.366;5.212;2022-07-06T19:27:03;10.63;;;3.92;;
55692;SDS011;41590;53.366;5.212;2022-07-06T19:29:31;15.07;;;4.20;;
55692;SDS011;41590;53.366;5.212;2022-07-06T19:31:59;11.88;;;3.92;;
55692;SDS011;41590;53.366;5.212;2022-07-06T19:34:32;10.18;;;3.85;;
55692;SDS011;41590;53.366;5.212;2022-07-06T19:39:44;19.42;;;4.57;;
55692;SDS011;41590;53.366;5.212;2022-07-06T19:42:15;9.57;;;4.50;;
55692;SDS011;41590;53.366;5.212;2022-07-06T19:51:13;11.32;;;4.10;;
55692;SDS011;41590;53.366;5.212;2022-07-06T19:53:44;10.55;;;4.43;;
55692;SDS011;41590;53.366;5.212;2022-07-06T19:56:22;13.85;;;4.22;;
55692;SDS011;41590;53.366;5.212;2022-07-06T19:59:05;12.77;;;3.95;;
55692;SDS011;41590;53.366;5.212;2022-07-06T20:01:42;16.80;;;3.67;;
55692;SDS011;41590;53.366;5.212;2022-07-06T20:07:16;10.80;;;4.00;;
55692;SDS011;41590;53.366;5.212;2022-07-06T20:09:42;10.00;;;3.60;;
55692;SDS011;41590;53.366;5.212;2022-07-06T20:15:28;12.27;;;3.70;;
55692;SDS011;41590;53.366;5.212;2022-07-06T20:18:12;15.73;;;3.63;;
55692;SDS011;41590;53.366;5.212;2022-07-06T20:20:53;12.43;;;3.80;;
55692;SDS011;41590;53.366;5.212;2022-07-06T20:23:21;19.15;;;4.28;;
55692;SDS011;41590;53.366;5.212;2022-07-06T20:35:02;10.75;;;3.88;;
55692;SDS011;41590;53.366;5.212;2022-07-06T20:37:31;14.13;;;3.45;;
55692;SDS011;41590;53.366;5.212;2022-07-06T20:42:36;12.40;;;2.80;;
55692;SDS011;41590;53.366;5.212;2022-07-06T20:45:05;12.82;;;2.78;;
55692;SDS011;41590;53.366;5.212;2022-07-06T20:47:46;11.30;;;2.80;;
55692;SDS011;41590;53.366;5.212;2022-07-06T20:50:21;9.80;;;3.42;;
55692;SDS011;41590;53.366;5.212;2022-07-06T21:02:56;6.22;;;2.15;;
55692;SDS011;41590;53.366;5.212;2022-07-06T21:05:40;13.40;;;2.80;;
55692;SDS011;41590;53.366;5.212;2022-07-06T21:14:32;10.98;;;2.85;;
55692;SDS011;41590;53.366;5.212;2022-07-06T21:17:02;8.40;;;2.80;;
55692;SDS011;41590;53.366;5.212;2022-07-06T21:22:44;6.60;;;2.45;;
55692;SDS011;41590;53.366;5.212;2022-07-06T21:31:42;12.52;;;2.67;;
55692;SDS011;41590;53.366;5.212;2022-07-06T21:34:12;9.57;;;2.38;;
55692;SDS011;41590;53.366;5.212;2022-07-06T21:36:39;9.68;;;3.40;;
55692;SDS011;41590;53.366;5.212;2022-07-06T21:39:09;12.43;;;3.00;;
55692;SDS011;41590;53.366;5.212;2022-07-06T21:41:40;15.63;;;3.10;;
55692;SDS011;41590;53.366;5.212;2022-07-06T21:44:06;10.85;;;3.08;;
55692;SDS011;41590;53.366;5.212;2022-07-06T21:46:33;11.43;;;2.90;;
55692;SDS011;41590;53.366;5.212;2022-07-06T21:48:59;11.80;;;3.05;;
55692;SDS011;41590;53.366;5.212;2022-07-06T21:51:24;16.27;;;3.70;;
55692;SDS011;41590;53.366;5.212;2022-07-06T21:54:08;9.50;;;2.38;;
55692;SDS011;41590;53.366;5.212;2022-07-06T21:56:38;9.00;;;2.55;;
55692;SDS011;41590;53.366;5.212;2022-07-06T21:59:07;12.07;;;3.22;;
55692;SDS011;41590;53.366;5.212;2022-07-06T22:02:13;9.73;;;2.63;;
55692;SDS011;41590;53.366;5.212;2022-07-06T22:04:50;13.70;;;2.78;;
55692;SDS011;41590;53.366;5.212;2022-07-06T22:10:23;13.93;;;2.75;;
55692;SDS011;41590;53.366;5.212;2022-07-06T22:16:17;7.13;;;1.42;;
55692;SDS011;41590;53.366;5.212;2022-07-06T22:18:51;9.48;;;2.25;;
55692;SDS011;41590;53.366;5.212;2022-07-06T22:21:29;15.18;;;2.15;;